Time;durP1;ratioP1;P1;durP2;ratioP2;P2;SDS_P1;SDS_P2;PMS_P1;PMS_P2;Temp;Humidity;BMP_temperature;BMP_pressure;BME280_temperature;BME280_humidity;BME280_pressure;Samples;Min_cycle;Max_cycle;Signal;HPM_P1;HPM_P2
2021/01/22 00:00:00;;;;;;;2.17;0.95;;;8.10;94.40;;;;;;5011183;28;20105;-73
2021/01/22 00:02:25;;;;;;;1.00;0.73;;;7.90;94.60;;;;;;5011714;28;20026;-72
2021/01/22 00:04:51;;;;;;;1.05;0.52;;;7.70;94.70;;;;;;5011423;28;20018;-72
2021/01/22 00:07:17;;;;;;;0.57;0.40;;;7.50;94.80;;;;;;5010332;28;20506;-73
2021/01/22 00:09:42;;;;;;;0.65;0.65;;;7.40;95.00;;;;;;5010474;28;20069;-73
2021/01/22 00:12:08;;;;;;;0.60;0.60;;;7.30;94.90;;;;;;5010950;28;20097;-72
2021/01/22 00:14:34;;;;;;;2.15;0.70;;;7.30;95.10;;;;;;5011572;28;20072;-72
2021/01/22 00:16:59;;;;;;;1.17;0.80;;;7.20;95.00;;;;;;5009656;28;20419;-70
2021/01/22 00:19:25;;;;;;;1.00;0.85;;;7.20;95.10;;;;;;5011880;28;20115;-74
2021/01/22 00:21:51;;;;;;;0.50;0.50;;;7.10;95.00;;;;;;5011434;28;20121;-73
2021/01/22 00:24:16;;;;;;;0.63;0.63;;;7.00;95.10;;;;;;5011088;28;20547;-73
2021/01/22 00:26:42;;;;;;;1.02;0.80;;;7.00;95.10;;;;;;5010075;28;20034;-73
2021/01/22 00:29:07;;;;;;;0.90;0.60;;;7.00;95.10;;;;;;5011890;28;20030;-73
2021/01/22 00:31:33;;;;;;;0.60;0.60;;;6.90;95.10;;;;;;5014532;28;20046;-72
2021/01/22 00:33:59;;;;;;;1.02;0.60;;;6.80;95.10;;;;;;5013024;28;20057;-73
2021/01/22 00:36:25;;;;;;;1.20;0.57;;;6.70;95.10;;;;;;5013418;28;20017;-72
2021/01/22 00:38:50;;;;;;;1.08;0.75;;;6.70;95.30;;;;;;5015094;28;20571;-72
2021/01/22 00:41:16;;;;;;;0.50;0.50;;;6.60;95.40;;;;;;5014329;28;20380;-73
2021/01/22 00:43:42;;;;;;;0.70;0.60;;;6.60;95.30;;;;;;5013406;28;20026;-73
2021/01/22 00:46:08;;;;;;;0.70;0.70;;;6.60;95.30;;;;;;5014051;28;20033;-72
2021/01/22 00:48:35;;;;;;;0.95;0.60;;;6.50;95.20;;;;;;5014360;28;20030;-73
2021/01/22 00:51:01;;;;;;;1.05;0.60;;;6.40;95.30;;;;;;5013986;28;20030;-73
2021/01/22 00:53:27;;;;;;;1.17;0.57;;;6.30;95.30;;;;;;5014540;28;20030;-72
2021/01/22 00:55:52;;;;;;;0.40;0.40;;;6.10;95.30;;;;;;5014235;28;20034;-72
2021/01/22 00:58:18;;;;;;;0.52;0.52;;;6.10;95.40;;;;;;5013674;28;20209;-72
2021/01/22 01:00:43;;;;;;;0.82;0.63;;;5.90;95.50;;;;;;5014343;28;20471;-72
2021/01/22 01:03:09;;;;;;;0.50;0.50;;;5.90;95.40;;;;;;5012326;28;20029;-73
2021/01/22 01:05:35;;;;;;;0.45;0.43;;;5.80;95.50;;;;;;5014375;28;20034;-72
2021/01/22 01:08:00;;;;;;;1.20;0.68;;;5.70;95.50;;;;;;5013582;28;20026;-72
2021/01/22 01:10:26;;;;;;;0.73;0.50;;;5.70;95.50;;;;;;5013943;28;20026;-72
2021/01/22 01:12:52;;;;;;;1.13;0.60;;;5.60;95.50;;;;;;5014335;28;20025;-72
2021/01/22 01:15:17;;;;;;;1.50;1.00;;;5.60;95.70;;;;;;5013479;28;20038;-72
2021/01/22 01:17:43;;;;;;;0.75;0.75;;;5.50;95.70;;;;;;5014113;28;20109;-72
2021/01/22 01:20:10;;;;;;;1.33;0.70;;;5.50;95.80;;;;;;5013745;28;20105;-72
2021/01/22 01:22:37;;;;;;;0.68;0.55;;;5.50;95.80;;;;;;5013835;28;20149;-72
2021/01/22 01:25:04;;;;;;;0.60;0.60;;;5.50;96.00;;;;;;5012015;28;20065;-72
2021/01/22 01:27:30;;;;;;;0.88;0.80;;;5.50;95.80;;;;;;5013831;28;20099;-72
2021/01/22 01:29:55;;;;;;;1.02;0.80;;;5.60;95.90;;;;;;5013834;28;20418;-72
2021/01/22 01:32:21;;;;;;;1.00;0.80;;;5.60;95.80;;;;;;5011553;28;20053;-72
2021/01/22 01:34:47;;;;;;;0.88;0.80;;;5.60;95.90;;;;;;5013932;28;20459;-72
2021/01/22 01:37:12;;;;;;;0.90;0.70;;;5.60;95.90;;;;;;5011802;28;20080;-72
2021/01/22 01:39:38;;;;;;;0.60;0.60;;;5.70;95.90;;;;;;5012028;28;20084;-72
2021/01/22 01:42:04;;;;;;;0.50;0.50;;;5.70;95.80;;;;;;5010815;28;20025;-73
2021/01/22 01:44:30;;;;;;;1.40;0.90;;;5.70;95.80;;;;;;5013583;28;20423;-73
2021/01/22 01:46:55;;;;;;;0.70;0.60;;;5.70;96.00;;;;;;5013493;28;20034;-72
2021/01/22 01:49:21;;;;;;;0.98;0.70;;;5.70;95.80;;;;;;5012688;28;20030;-72
2021/01/22 01:51:48;;;;;;;2.35;0.88;;;5.70;95.80;;;;;;5013751;28;20030;-72
2021/01/22 01:54:14;;;;;;;1.00;0.63;;;5.70;95.90;;;;;;5012762;28;20026;-72
2021/01/22 01:56:40;;;;;;;0.60;0.60;;;5.70;95.80;;;;;;5013479;28;20036;-72
2021/01/22 01:59:06;;;;;;;0.68;0.63;;;5.70;95.80;;;;;;5012660;28;20025;-73
2021/01/22 02:01:35;;;;;;;1.02;0.90;;;5.70;95.90;;;;;;5013413;28;20105;-73
2021/01/22 02:04:01;;;;;;;1.30;1.20;;;5.70;95.90;;;;;;5011995;28;20154;-72
2021/01/22 02:06:27;;;;;;;2.88;1.40;;;5.70;95.90;;;;;;5012599;28;20475;-73
2021/01/22 02:08:53;;;;;;;1.20;0.73;;;5.70;95.90;;;;;;5013146;28;20026;-73
2021/01/22 02:11:19;;;;;;;1.73;0.88;;;5.60;95.80;;;;;;5012407;28;20022;-73
2021/01/22 02:13:47;;;;;;;0.93;0.75;;;5.60;95.90;;;;;;5013064;28;20029;-73
2021/01/22 02:16:13;;;;;;;2.35;1.25;;;5.70;95.90;;;;;;5012394;28;20040;-74
2021/01/22 02:18:40;;;;;;;0.70;0.70;;;5.60;95.90;;;;;;5011553;28;20108;-72
2021/01/22 02:21:44;;;;;;;1.00;0.90;;;5.60;95.90;;;;;;5012321;28;20104;-73
2021/01/22 02:24:20;;;;;;;0.77;0.77;;;5.60;95.80;;;;;;4970794;28;20038;-73
2021/01/22 02:26:56;;;;;;;2.08;1.20;;;5.70;95.90;;;;;;4971586;28;20033;-72
2021/01/22 02:29:23;;;;;;;1.63;1.10;;;5.80;95.90;;;;;;4970766;28;20039;-73
2021/01/22 02:31:52;;;;;;;1.58;1.05;;;5.70;95.80;;;;;;4971044;28;20137;-72
2021/01/22 02:34:22;;;;;;;2.33;1.00;;;5.70;95.80;;;;;;4970818;28;20129;-71
2021/01/22 02:36:49;;;;;;;1.60;0.90;;;5.70;95.90;;;;;;4971264;28;20034;-72
2021/01/22 02:39:19;;;;;;;2.10;0.90;;;5.70;95.90;;;;;;4954418;28;20058;-72
2021/01/22 02:41:47;;;;;;;2.80;1.33;;;5.70;95.90;;;;;;4971143;28;20112;-72
2021/01/22 02:44:13;;;;;;;1.90;1.13;;;5.70;95.90;;;;;;4970493;28;20440;-73
2021/01/22 02:46:40;;;;;;;1.10;0.90;;;5.80;95.90;;;;;;4971105;28;20559;-72
2021/01/22 02:49:05;;;;;;;5.10;2.40;;;5.70;95.80;;;;;;4971220;28;20050;-72
2021/01/22 02:51:31;;;;;;;2.45;1.13;;;5.70;95.90;;;;;;4970100;28;20381;-72
2021/01/22 02:53:56;;;;;;;3.25;1.42;;;5.70;95.90;;;;;;4975347;28;20408;-72
2021/01/22 02:56:36;;;;;;;2.58;1.33;;;5.70;95.90;;;;;;5011733;28;20029;-73
2021/01/22 02:59:28;;;;;;;3.40;1.40;;;5.70;95.90;;;;;;5012322;28;20026;-72
2021/01/22 03:01:58;;;;;;;;;;;5.60;95.90;;;;;;5011426;28;20026;-73
2021/01/22 03:04:27;;;;;;;3.28;1.95;;;5.60;95.90;;;;;;5011410;28;19905;-72
2021/01/22 03:06:56;;;;;;;3.63;1.98;;;5.60;96.00;;;;;;5011977;28;20038;-72
2021/01/22 03:09:24;;;;;;;5.35;1.88;;;5.60;96.00;;;;;;5011977;28;20072;-73
2021/01/22 03:11:51;;;;;;;4.32;2.08;;;5.50;95.90;;;;;;5012424;28;20018;-73
2021/01/22 03:14:21;;;;;;;4.57;1.92;;;5.50;96.00;;;;;;5011600;28;20053;-73
2021/01/22 03:16:49;;;;;;;3.72;2.05;;;5.50;96.00;;;;;;5012138;28;20037;-72
2021/01/22 03:19:16;;;;;;;3.67;1.80;;;5.50;96.00;;;;;;5011523;28;20530;-73
2021/01/22 03:21:41;;;;;;;3.13;1.67;;;5.50;96.00;;;;;;5012125;28;20026;-72
2021/01/22 03:24:07;;;;;;;7.47;2.75;;;5.40;95.90;;;;;;5010889;28;20298;-72
2021/01/22 03:26:33;;;;;;;2.97;2.00;;;5.40;96.00;;;;;;5011301;28;20057;-72
2021/01/22 03:28:59;;;;;;;3.88;2.28;;;5.40;96.10;;;;;;5011712;28;20033;-72
2021/01/22 03:31:24;;;;;;;2.78;1.80;;;5.40;96.10;;;;;;5009811;28;20496;-73
2021/01/22 03:33:50;;;;;;;3.67;2.72;;;5.40;96.10;;;;;;5010684;28;20033;-72
2021/01/22 03:36:16;;;;;;;4.38;2.08;;;5.40;96.00;;;;;;5011318;28;20097;-73
2021/01/22 03:38:42;;;;;;;4.47;2.30;;;5.40;96.10;;;;;;5010470;28;20057;-72
2021/01/22 03:41:08;;;;;;;4.03;2.42;;;5.50;96.10;;;;;;5011572;28;20053;-73
2021/01/22 03:43:34;;;;;;;4.28;2.20;;;5.50;96.10;;;;;;5011220;28;20399;-72
2021/01/22 03:46:00;;;;;;;4.03;1.83;;;5.60;96.00;;;;;;5011725;28;20033;-73
2021/01/22 03:48:25;;;;;;;3.05;1.58;;;5.50;95.90;;;;;;5011278;28;20037;-72
2021/01/22 03:50:51;;;;;;;3.30;1.92;;;5.50;95.90;;;;;;5010432;28;20018;-73
2021/01/22 03:53:17;;;;;;;3.38;1.90;;;5.50;95.90;;;;;;5011132;28;20050;-72
2021/01/22 03:55:42;;;;;;;3.70;1.92;;;5.40;95.90;;;;;;5011922;28;20359;-72
2021/01/22 03:58:10;;;;;;;5.80;1.98;;;5.40;95.90;;;;;;5011773;28;20037;-72
2021/01/22 04:00:36;;;;;;;3.20;1.88;;;5.30;96.00;;;;;;5011127;28;20018;-72
2021/01/22 04:03:01;;;;;;;4.13;1.60;;;5.30;96.00;;;;;;5012030;28;20025;-72
2021/01/22 04:05:27;;;;;;;3.83;1.90;;;5.30;96.00;;;;;;5014463;28;20041;-72
2021/01/22 04:07:52;;;;;;;2.10;1.80;;;5.30;96.10;;;;;;5015363;28;20029;-72
2021/01/22 04:10:18;;;;;;;1.25;1.15;;;5.30;96.00;;;;;;5013404;28;20014;-73
2021/01/22 04:12:44;;;;;;;2.45;1.48;;;5.30;96.10;;;;;;5015656;28;20053;-73
2021/01/22 04:15:10;;;;;;;3.03;1.42;;;5.30;96.10;;;;;;5015383;28;20026;-73
2021/01/22 04:17:36;;;;;;;1.88;1.10;;;5.30;96.10;;;;;;5013712;28;20145;-73
2021/01/22 04:20:03;;;;;;;3.03;1.88;;;5.30;96.10;;;;;;5014703;28;20558;-72
2021/01/22 04:22:28;;;;;;;2.25;1.02;;;5.30;96.10;;;;;;5012866;28;20022;-73
2021/01/22 04:24:54;;;;;;;1.25;0.88;;;5.30;96.10;;;;;;5014825;28;20041;-73
2021/01/22 04:27:20;;;;;;;2.65;1.33;;;5.40;96.40;;;;;;5014053;28;20106;-74
2021/01/22 04:29:45;;;;;;;2.47;1.45;;;5.40;96.00;;;;;;5015079;28;20164;-73
2021/01/22 04:32:11;;;;;;;1.83;1.23;;;5.40;96.00;;;;;;5014403;28;20046;-73
2021/01/22 04:34:36;;;;;;;2.95;1.50;;;5.40;96.00;;;;;;5012762;28;20478;-73
2021/01/22 04:37:05;;;;;;;3.25;1.33;;;5.50;96.00;;;;;;5013638;28;20049;-72
2021/01/22 04:39:35;;;;;;;3.08;1.67;;;5.50;96.00;;;;;;5013012;28;20029;-73
2021/01/22 04:42:02;;;;;;;2.17;1.27;;;5.50;96.00;;;;;;5014771;28;20113;-73
2021/01/22 04:44:27;;;;;;;2.08;1.00;;;5.60;96.00;;;;;;5014174;28;20034;-73
2021/01/22 04:46:54;;;;;;;2.90;1.30;;;5.60;95.90;;;;;;5014635;28;20034;-73
2021/01/22 04:49:21;;;;;;;4.07;1.27;;;5.60;95.90;;;;;;5013964;28;20033;-72
2021/01/22 04:51:50;;;;;;;1.50;1.20;;;5.60;95.80;;;;;;5013251;28;20045;-72
2021/01/22 04:54:36;;;;;;;2.17;1.45;;;5.60;95.80;;;;;;5014581;28;20073;-71
2021/01/22 04:57:06;;;;;;;3.42;1.77;;;5.60;95.80;;;;;;5014569;28;20113;-71
2021/01/22 04:59:50;;;;;;;3.35;1.58;;;5.50;95.80;;;;;;5013820;28;20028;-71
2021/01/22 05:02:17;;;;;;;2.88;1.50;;;5.60;95.80;;;;;;5013131;28;20018;-72
2021/01/22 05:04:43;;;;;;;3.13;1.70;;;5.50;95.80;;;;;;5019757;28;20025;-72
2021/01/22 05:07:12;;;;;;;2.90;1.60;;;5.50;95.80;;;;;;5032296;28;20034;-72
2021/01/22 05:09:39;;;;;;;7.00;2.10;;;5.60;95.80;;;;;;5021992;28;20072;-72
2021/01/22 05:12:06;;;;;;;5.53;2.08;;;5.60;95.80;;;;;;5018607;28;20022;-72
2021/01/22 05:14:33;;;;;;;3.17;2.15;;;5.60;95.70;;;;;;5013326;28;20033;-72
2021/01/22 05:17:06;;;;;;;5.82;1.85;;;5.60;95.70;;;;;;5014394;28;20038;-72
2021/01/22 05:19:37;;;;;;;4.07;2.20;;;5.60;95.70;;;;;;5013527;28;20014;-73
2021/01/22 05:22:04;;;;;;;3.05;1.77;;;5.60;95.70;;;;;;5013742;28;20071;-72
2021/01/22 05:24:31;;;;;;;4.28;2.45;;;5.60;95.70;;;;;;5013592;28;20026;-72
2021/01/22 05:27:07;;;;;;;3.90;2.47;;;5.60;95.70;;;;;;5013926;28;20457;-72
2021/01/22 05:29:35;;;;;;;5.00;2.35;;;5.70;95.60;;;;;;5013200;28;20026;-72
2021/01/22 05:32:01;;;;;;;5.00;2.90;;;5.70;95.60;;;;;;5027876;28;20050;-72
2021/01/22 05:34:46;;;;;;;9.68;3.40;;;5.80;95.70;;;;;;5032912;28;20030;-73
2021/01/22 05:37:12;;;;;;;6.75;2.75;;;5.70;95.50;;;;;;5033614;28;20116;-72
2021/01/22 05:39:38;;;;;;;5.82;2.70;;;5.70;95.60;;;;;;5032800;28;20117;-73
2021/01/22 05:42:04;;;;;;;5.80;2.65;;;5.70;95.60;;;;;;5033622;28;20174;-71
2021/01/22 05:44:30;;;;;;;7.22;3.75;;;5.80;95.60;;;;;;5032800;28;20025;-88
2021/01/22 05:47:10;;;;;;;7.63;3.42;;;5.80;95.50;;;;;;5029435;28;20025;-83
2021/01/22 05:49:58;;;;;;;7.32;3.85;;;5.80;95.50;;;;;;5029731;28;20052;-82
2021/01/22 05:52:25;;;;;;;8.63;4.38;;;5.90;95.50;;;;;;5031067;28;20044;-81
2021/01/22 05:54:51;;;;;;;8.57;4.50;;;5.90;95.50;;;;;;5031403;28;20024;-81
2021/01/22 05:57:17;;;;;;;10.85;5.05;;;5.90;95.50;;;;;;5031723;28;20395;-73
2021/01/22 05:59:43;;;;;;;12.48;4.95;;;5.80;95.40;;;;;;5031569;28;20446;-73
2021/01/22 06:02:35;;;;;;;12.13;5.80;;;5.80;95.50;;;;;;5031608;28;20108;-74
2021/01/22 06:05:12;;;;;;;8.75;4.93;;;5.90;95.40;;;;;;5028759;28;20046;-74
2021/01/22 06:07:44;;;;;;;7.93;4.18;;;5.90;95.40;;;;;;5032016;28;20083;-75
2021/01/22 06:10:12;;;;;;;7.60;4.13;;;5.90;95.50;;;;;;5031660;28;20070;-74
2021/01/22 06:12:42;;;;;;;11.60;3.90;;;5.90;95.40;;;;;;5032234;28;20021;-75
2021/01/22 06:15:11;;;;;;;9.02;3.72;;;5.90;95.40;;;;;;5032576;28;20109;-74
2021/01/22 06:17:39;;;;;;;10.80;3.95;;;5.90;95.40;;;;;;5030125;28;20534;-75
2021/01/22 06:20:07;;;;;;;6.38;3.60;;;6.00;95.40;;;;;;5032329;28;20378;-73
2021/01/22 06:22:41;;;;;;;6.75;3.70;;;6.00;95.30;;;;;;5031826;28;20494;-73
2021/01/22 06:25:09;;;;;;;6.82;3.00;;;6.10;95.30;;;;;;5032666;28;20025;-73
2021/01/22 06:27:36;;;;;;;5.00;3.00;;;6.10;95.30;;;;;;5029974;28;20044;-73
2021/01/22 06:30:02;;;;;;;5.90;3.03;;;6.10;95.20;;;;;;5032529;28;20057;-73
2021/01/22 06:32:28;;;;;;;5.72;2.78;;;6.10;95.20;;;;;;5031916;28;20065;-74
2021/01/22 06:34:56;;;;;;;6.50;3.30;;;6.10;95.20;;;;;;5032365;28;20083;-74
2021/01/22 06:37:24;;;;;;;7.85;3.72;;;6.10;95.20;;;;;;5032413;28;20030;-74
2021/01/22 06:39:52;;;;;;;10.07;3.97;;;6.10;95.20;;;;;;5030586;28;20025;-73
2021/01/22 06:42:19;;;;;;;7.57;3.55;;;6.10;95.20;;;;;;5032241;28;20022;-74
2021/01/22 06:44:45;;;;;;;8.68;3.67;;;6.10;95.20;;;;;;5030348;28;20029;-75
2021/01/22 06:47:14;;;;;;;7.93;3.65;;;6.10;95.20;;;;;;5032394;28;20479;-75
2021/01/22 06:49:40;;;;;;;7.63;3.28;;;6.10;95.20;;;;;;5030188;28;20021;-75
2021/01/22 06:52:14;;;;;;;8.27;3.80;;;6.10;95.20;;;;;;5032020;28;20024;-75
2021/01/22 06:55:03;;;;;;;7.97;3.35;;;6.10;95.10;;;;;;5031533;28;20434;-74
2021/01/22 06:57:30;;;;;;;8.82;3.40;;;6.00;95.10;;;;;;5031774;28;20028;-75
2021/01/22 06:59:57;;;;;;;5.43;2.47;;;6.00;95.20;;;;;;5030792;28;20036;-74
2021/01/22 07:02:32;;;;;;;3.42;1.88;;;6.00;95.10;;;;;;5030960;28;20036;-75
2021/01/22 07:04:58;;;;;;;7.68;2.88;;;6.00;95.10;;;;;;5031578;28;20060;-74
2021/01/22 07:07:47;;;;;;;6.63;3.10;;;6.00;95.10;;;;;;5030429;28;20505;-75
2021/01/22 07:10:13;;;;;;;8.45;4.53;;;6.00;95.10;;;;;;5032297;28;20021;-73
2021/01/22 07:12:41;;;;;;;4.82;2.80;;;5.90;95.20;;;;;;5029921;28;20482;-73
2021/01/22 07:15:24;;;;;;;5.43;2.33;;;5.90;95.20;;;;;;5031786;28;20499;-73
2021/01/22 07:17:51;;;;;;;5.93;2.53;;;5.90;95.20;;;;;;5029769;28;20083;-73
2021/01/22 07:20:17;;;;;;;8.98;4.53;;;5.90;95.20;;;;;;5031745;28;20022;-73
2021/01/22 07:22:59;;;;;;;9.02;4.18;;;5.80;95.20;;;;;;5029721;28;20076;-74
2021/01/22 07:25:29;;;;;;;10.13;4.90;;;5.90;95.10;;;;;;5030137;28;20037;-74
2021/01/22 07:27:55;;;;;;;9.45;4.30;;;5.90;95.20;;;;;;5030464;28;20018;-74
2021/01/22 07:30:21;;;;;;;9.18;4.40;;;5.80;95.10;;;;;;5031317;28;20332;-74
2021/01/22 07:32:49;;;;;;;12.85;4.18;;;5.90;95.20;;;;;;5031168;28;20049;-73
2021/01/22 07:35:25;;;;;;;10.85;5.47;;;5.90;95.10;;;;;;5031634;28;20021;-74
2021/01/22 07:37:52;;;;;;;9.63;4.95;;;5.80;95.00;;;;;;5030422;28;20048;-74
2021/01/22 07:40:18;;;;;;;9.10;3.88;;;5.80;95.10;;;;;;5035336;28;20466;-73
2021/01/22 07:42:45;;;;;;;7.18;3.65;;;5.70;95.10;;;;;;5034927;28;20045;-74
2021/01/22 07:45:12;;;;;;;6.03;3.42;;;5.80;95.20;;;;;;5034184;28;20017;-73
2021/01/22 07:47:43;;;;;;;8.20;3.60;;;5.70;95.10;;;;;;5034853;28;20034;-74
2021/01/22 07:50:11;;;;;;;8.38;3.53;;;5.70;95.10;;;;;;5034333;28;20021;-74
2021/01/22 07:52:41;;;;;;;5.72;2.38;;;5.70;95.20;;;;;;5033513;28;20053;-74
2021/01/22 07:55:19;;;;;;;5.85;2.95;;;5.80;95.20;;;;;;5035437;28;20025;-74
2021/01/22 07:57:46;;;;;;;5.78;2.83;;;5.80;95.20;;;;;;5034600;28;20025;-74
2021/01/22 08:00:15;;;;;;;4.45;2.60;;;5.80;95.10;;;;;;5035312;28;20025;-74
2021/01/22 08:02:58;;;;;;;6.05;3.60;;;5.80;95.00;;;;;;5033302;28;20021;-75
2021/01/22 08:05:31;;;;;;;7.85;3.47;;;5.80;95.00;;;;;;5035168;28;20451;-74
2021/01/22 08:07:57;;;;;;;6.25;3.28;;;5.80;95.00;;;;;;5035036;28;20508;-74
2021/01/22 08:10:30;;;;;;;7.38;3.42;;;5.80;95.00;;;;;;5035010;28;20096;-74
2021/01/22 08:12:58;;;;;;;6.00;2.78;;;5.80;95.00;;;;;;5034506;28;20033;-73
2021/01/22 08:15:24;;;;;;;8.10;3.78;;;5.80;95.00;;;;;;5034927;28;20032;-74
2021/01/22 08:17:50;;;;;;;8.95;3.95;;;5.80;94.90;;;;;;5034307;28;20032;-74
2021/01/22 08:20:18;;;;;;;7.57;3.72;;;5.80;94.90;;;;;;5034847;28;20025;-74
2021/01/22 08:22:54;;;;;;;5.05;3.05;;;5.80;95.00;;;;;;5033916;28;20026;-76
2021/01/22 08:25:35;;;;;;;8.15;3.92;;;5.90;94.90;;;;;;5034748;28;20084;-74
2021/01/22 08:28:02;;;;;;;6.68;3.05;;;5.90;94.90;;;;;;5034713;28;20029;-74
2021/01/22 08:30:29;;;;;;;7.20;2.80;;;5.90;94.90;;;;;;5034238;28;20029;-74
2021/01/22 08:32:56;;;;;;;8.23;3.90;;;5.80;94.90;;;;;;5033848;28;20025;-74
2021/01/22 08:35:23;;;;;;;7.97;3.83;;;5.80;94.80;;;;;;5033322;28;20051;-74
2021/01/22 08:37:51;;;;;;;7.45;3.83;;;5.80;94.80;;;;;;5032619;28;20060;-73
2021/01/22 08:40:17;;;;;;;8.38;3.00;;;5.90;94.80;;;;;;5034827;28;20029;-74
2021/01/22 08:43:02;;;;;;;6.43;2.53;;;5.90;94.80;;;;;;5033518;28;20029;-75
2021/01/22 08:45:28;;;;;;;5.57;2.70;;;6.00;94.70;;;;;;5034636;28;20022;-73
2021/01/22 08:47:54;;;;;;;8.52;3.63;;;6.00;94.70;;;;;;5033650;28;20028;-74
2021/01/22 08:50:21;;;;;;;11.38;3.25;;;6.00;94.60;;;;;;5032196;28;20049;-74
2021/01/22 08:53:02;;;;;;;6.03;3.58;;;5.90;94.60;;;;;;5032245;28;20057;-74
2021/01/22 08:55:27;;;;;;;8.23;3.88;;;5.90;94.60;;;;;;5032824;28;20028;-75
2021/01/22 08:58:05;;;;;;;6.63;3.05;;;5.90;94.60;;;;;;5033320;28;20100;-74
2021/01/22 09:00:31;;;;;;;8.27;3.85;;;6.00;94.60;;;;;;5034148;28;20075;-74
2021/01/22 09:02:57;;;;;;;5.35;2.85;;;6.00;94.70;;;;;;5031819;28;20033;-74
2021/01/22 09:05:24;;;;;;;7.72;3.30;;;6.00;94.60;;;;;;5034018;28;20030;-74
2021/01/22 09:08:09;;;;;;;8.38;3.95;;;6.10;94.80;;;;;;5033390;28;20044;-74
2021/01/22 09:10:41;;;;;;;8.93;4.15;;;6.10;94.50;;;;;;5034003;28;20029;-74
2021/01/22 09:13:09;;;;;;;10.35;4.55;;;6.10;94.40;;;;;;5033978;28;20017;-74
2021/01/22 09:15:35;;;;;;;6.88;3.75;;;6.00;94.40;;;;;;5032485;28;20042;-75
2021/01/22 09:18:01;;;;;;;6.68;3.28;;;6.00;94.50;;;;;;5033233;28;20025;-74
2021/01/22 09:20:28;;;;;;;7.28;3.08;;;6.10;94.50;;;;;;5033919;28;20547;-75
2021/01/22 09:23:04;;;;;;;8.63;3.58;;;6.10;94.40;;;;;;5033208;28;20096;-73
2021/01/22 09:25:30;;;;;;;8.45;3.70;;;6.10;94.40;;;;;;5032363;28;20025;-74
2021/01/22 09:27:56;;;;;;;4.13;2.58;;;6.10;94.50;;;;;;5031709;28;20036;-74
2021/01/22 09:30:26;;;;;;;7.55;2.65;;;6.20;94.50;;;;;;5032519;28;20041;-74
2021/01/22 09:32:54;;;;;;;9.60;3.42;;;6.20;94.40;;;;;;5033112;28;20033;-74
2021/01/22 09:35:22;;;;;;;6.82;3.13;;;6.30;94.30;;;;;;5033524;28;20056;-74
2021/01/22 09:37:48;;;;;;;6.32;2.88;;;6.30;94.40;;;;;;5032576;28;20582;-75
2021/01/22 09:40:16;;;;;;;7.43;3.30;;;6.40;94.40;;;;;;5033151;28;20060;-75
2021/01/22 09:42:41;;;;;;;11.43;3.53;;;6.40;94.20;;;;;;5031373;28;20025;-74
2021/01/22 09:45:10;;;;;;;8.05;3.00;;;6.30;94.10;;;;;;5033432;28;20032;-74
2021/01/22 09:47:36;;;;;;;4.22;2.13;;;6.40;94.30;;;;;;5033202;28;20041;-74
2021/01/22 09:50:03;;;;;;;6.50;3.33;;;6.40;94.30;;;;;;5032802;28;20034;-74
2021/01/22 09:52:29;;;;;;;7.97;3.58;;;6.40;94.20;;;;;;5033047;28;20096;-74
2021/01/22 09:54:55;;;;;;;6.05;3.25;;;6.30;94.20;;;;;;5032512;28;20440;-74
2021/01/22 09:57:21;;;;;;;9.32;3.90;;;6.30;94.20;;;;;;5033205;28;20451;-74
2021/01/22 09:59:46;;;;;;;7.18;2.90;;;6.40;94.10;;;;;;5032421;28;20053;-75
2021/01/22 10:02:12;;;;;;;7.22;3.20;;;6.40;94.20;;;;;;5030588;28;20163;-74
2021/01/22 10:04:38;;;;;;;7.15;3.50;;;6.50;94.20;;;;;;5032840;28;20447;-74
2021/01/22 10:07:04;;;;;;;4.78;2.38;;;6.50;94.00;;;;;;5032176;28;20029;-75
2021/01/22 10:09:30;;;;;;;6.47;2.60;;;6.60;94.00;;;;;;5032797;28;20029;-75
2021/01/22 10:11:56;;;;;;;7.40;2.95;;;6.60;94.00;;;;;;5031931;28;20014;-75
2021/01/22 10:14:22;;;;;;;5.40;2.78;;;6.70;94.00;;;;;;5032781;28;20368;-75
2021/01/22 10:16:48;;;;;;;6.25;3.00;;;6.70;93.80;;;;;;5032492;28;20072;-75
2021/01/22 10:19:13;;;;;;;4.50;2.13;;;6.80;93.90;;;;;;5032408;28;20095;-75
2021/01/22 10:21:39;;;;;;;6.05;2.65;;;6.90;93.90;;;;;;5032824;28;20113;-76
2021/01/22 10:24:05;;;;;;;5.68;3.20;;;6.90;93.80;;;;;;5032234;28;20021;-74
2021/01/22 10:26:30;;;;;;;4.60;2.15;;;6.90;93.70;;;;;;5032517;28;20091;-74
2021/01/22 10:28:56;;;;;;;4.93;2.65;;;7.00;93.70;;;;;;5031691;28;20353;-75
2021/01/22 10:31:22;;;;;;;6.20;3.33;;;7.00;93.70;;;;;;5030758;28;20045;-74
2021/01/22 10:33:47;;;;;;;5.43;2.55;;;7.10;93.70;;;;;;5030362;28;20203;-74
2021/01/22 10:36:20;;;;;;;4.10;2.28;;;7.20;93.70;;;;;;5109366;27;20352;-75
2021/01/22 10:38:46;;;;;;;2.78;1.50;;;7.30;93.70;;;;;;5088736;28;20030;-76
2021/01/22 10:41:12;;;;;;;5.75;3.13;;;7.40;93.60;;;;;;5070992;28;20021;-75
2021/01/22 10:43:38;;;;;;;4.93;2.90;;;7.40;93.40;;;;;;5071015;28;20055;-75
2021/01/22 10:46:04;;;;;;;5.93;2.65;;;7.40;93.40;;;;;;5088445;28;20477;-76
2021/01/22 10:48:30;;;;;;;7.15;4.00;;;7.40;93.40;;;;;;5070509;28;20104;-75
2021/01/22 10:50:56;;;;;;;4.72;2.28;;;7.40;93.50;;;;;;5088375;28;20433;-75
2021/01/22 10:53:23;;;;;;;2.15;1.70;;;7.50;93.50;;;;;;5088635;28;20050;-75
2021/01/22 10:55:48;;;;;;;3.22;1.92;;;7.60;93.50;;;;;;5088247;28;20025;-76
2021/01/22 10:58:14;;;;;;;3.45;1.65;;;7.70;93.40;;;;;;5088709;28;20380;-73
2021/01/22 11:00:40;;;;;;;5.03;2.65;;;7.70;93.40;;;;;;5088856;28;20464;-75
2021/01/22 11:03:06;;;;;;;4.15;2.35;;;7.60;93.30;;;;;;5088277;28;20032;-73
2021/01/22 11:05:32;;;;;;;5.60;2.50;;;7.60;93.40;;;;;;5088866;28;20103;-74
2021/01/22 11:07:58;;;;;;;5.50;2.42;;;7.60;93.40;;;;;;5070054;28;20016;-74
2021/01/22 11:10:25;;;;;;;3.47;2.22;;;7.50;93.30;;;;;;5088571;28;20021;-74
2021/01/22 11:12:51;;;;;;;7.47;2.20;;;7.60;93.40;;;;;;5087961;28;20025;-74
2021/01/22 11:15:17;;;;;;;4.40;2.40;;;7.60;93.40;;;;;;5070130;28;20118;-73
2021/01/22 11:17:43;;;;;;;4.30;2.28;;;7.60;93.30;;;;;;5088387;28;20043;-73
2021/01/22 11:20:09;;;;;;;6.13;1.88;;;7.60;93.30;;;;;;5088071;28;20036;-74
2021/01/22 11:22:35;;;;;;;6.38;2.55;;;7.60;93.40;;;;;;5070079;28;20475;-74
2021/01/22 11:25:01;;;;;;;4.18;2.00;;;7.60;93.50;;;;;;5069358;28;20123;-74
2021/01/22 11:27:27;;;;;;;5.13;2.00;;;7.60;93.50;;;;;;5088112;28;20030;-74
2021/01/22 11:29:53;;;;;;;5.20;2.28;;;7.60;93.50;;;;;;5087628;28;20400;-74
2021/01/22 11:32:19;;;;;;;5.10;2.70;;;7.60;93.50;;;;;;5088356;28;20070;-74
2021/01/22 11:34:45;;;;;;;5.00;2.35;;;7.60;93.50;;;;;;5073295;28;20056;-74
2021/01/22 11:37:11;;;;;;;8.55;2.85;;;7.70;93.40;;;;;;5087397;28;20017;-74
2021/01/22 11:39:37;;;;;;;4.38;1.85;;;7.70;93.30;;;;;;5087818;28;20024;-74
2021/01/22 11:42:04;;;;;;;5.45;2.83;;;7.80;93.30;;;;;;5087625;28;20036;-74
2021/01/22 11:44:30;;;;;;;3.63;1.95;;;7.90;93.00;;;;;;5086729;28;20016;-73
2021/01/22 11:46:56;;;;;;;4.80;2.05;;;8.00;93.20;;;;;;5078226;28;20025;-74
2021/01/22 11:49:22;;;;;;;3.72;1.85;;;8.10;93.10;;;;;;5074313;28;20027;-74
2021/01/22 11:51:47;;;;;;;6.30;2.25;;;8.20;93.10;;;;;;5072977;28;20028;-74
2021/01/22 11:54:13;;;;;;;4.68;1.85;;;8.20;92.90;;;;;;5073438;28;20058;-74
2021/01/22 11:56:39;;;;;;;3.92;1.88;;;8.30;93.00;;;;;;5074217;28;20028;-74
2021/01/22 11:59:07;;;;;;;4.35;1.98;;;8.30;92.90;;;;;;5072267;28;20024;-74
2021/01/22 12:01:32;;;;;;;3.25;1.60;;;8.30;92.70;;;;;;5074397;28;20036;-74
2021/01/22 12:03:58;;;;;;;4.63;2.30;;;8.30;92.40;;;;;;5073233;28;20111;-75
2021/01/22 12:06:23;;;;;;;4.45;1.70;;;8.30;92.40;;;;;;5072910;28;20020;-74
2021/01/22 12:08:49;;;;;;;3.78;1.90;;;8.30;92.40;;;;;;5074181;28;20017;-74
2021/01/22 12:11:14;;;;;;;10.50;2.17;;;8.30;92.60;;;;;;5072066;28;20028;-74
2021/01/22 12:13:40;;;;;;;2.53;1.33;;;8.30;92.70;;;;;;5074107;28;20024;-75
2021/01/22 12:16:06;;;;;;;5.88;2.08;;;8.40;92.70;;;;;;5073220;28;20113;-74
2021/01/22 12:18:31;;;;;;;1.73;1.30;;;8.40;92.50;;;;;;5073500;28;20020;-73
2021/01/22 12:20:57;;;;;;;6.25;2.15;;;8.30;92.40;;;;;;5072889;28;20056;-74
2021/01/22 12:23:22;;;;;;;3.70;2.35;;;8.30;92.50;;;;;;5073758;28;20476;-73
2021/01/22 12:25:48;;;;;;;3.13;1.75;;;8.30;92.80;;;;;;5073250;28;20029;-73
2021/01/22 12:28:15;;;;;;;7.32;2.33;;;8.30;92.40;;;;;;5073008;28;20025;-73
2021/01/22 12:30:42;;;;;;;4.53;2.08;;;8.20;92.20;;;;;;5073364;28;20380;-73
2021/01/22 12:33:07;;;;;;;3.58;2.08;;;8.20;92.40;;;;;;5072997;28;20460;-74
2021/01/22 12:35:33;;;;;;;3.97;2.08;;;8.10;92.20;;;;;;5071942;28;20049;-73
2021/01/22 12:37:59;;;;;;;3.22;1.77;;;8.00;92.30;;;;;;5072653;28;20040;-73
2021/01/22 12:40:25;;;;;;;4.20;3.13;;;8.00;92.40;;;;;;5073117;28;20508;-74
2021/01/22 12:42:50;;;;;;;3.95;2.10;;;8.00;92.40;;;;;;5071696;28;20021;-74
2021/01/22 12:45:18;;;;;;;3.85;1.55;;;8.00;92.60;;;;;;5072835;28;20025;-74
2021/01/22 12:47:44;;;;;;;7.10;2.15;;;8.00;92.50;;;;;;5073184;28;20044;-74
2021/01/22 12:50:11;;;;;;;5.20;2.17;;;8.00;92.30;;;;;;5072674;28;20029;-74
2021/01/22 12:52:38;;;;;;;3.42;1.58;;;8.00;92.40;;;;;;5072902;28;20024;-73
2021/01/22 12:55:08;;;;;;;8.75;1.92;;;8.00;92.40;;;;;;5072348;28;20112;-75
2021/01/22 12:57:33;;;;;;;3.80;1.85;;;8.00;92.30;;;;;;5071369;28;20028;-75
2021/01/22 12:59:59;;;;;;;1.67;1.35;;;8.00;92.10;;;;;;5072156;28;20071;-73